sensor_id;sensor_type;location;lat;lon;timestamp;P1;durP1;ratioP1;P2;durP2;ratioP2
34035;SDS011;63481;52.588;22.472;2023-02-01T00:00:30;17.00;;;9.10;;
34035;SDS011;63481;52.588;22.472;2023-02-01T00:01:30;16.50;;;9.10;;
34035;SDS011;63481;52.588;22.472;2023-02-01T00:02:24;16.20;;;10.20;;
34035;SDS011;63481;52.588;22.472;2023-02-01T00:03:17;15.70;;;9.30;;
34035;SDS011;63481;52.588;22.472;2023-02-01T00:04:11;16.60;;;10.20;;
34035;SDS011;63481;52.588;22.472;2023-02-01T00:05:05;16.40;;;10.00;;
34035;SDS011;63481;52.588;22.472;2023-02-01T00:06:02;15.50;;;9.80;;
34035;SDS011;63481;52.588;22.472;2023-02-01T00:06:56;13.30;;;8.00;;
34035;SDS011;63481;52.588;22.472;2023-02-01T00:07:49;15.30;;;9.40;;
34035;SDS011;63481;52.588;22.472;2023-02-01T00:08:42;13.60;;;8.00;;
34035;SDS011;63481;52.588;22.472;2023-02-01T00:09:35;14.20;;;9.20;;
34035;SDS011;63481;52.588;22.472;2023-02-01T00:10:29;15.40;;;9.20;;
34035;SDS011;63481;52.588;22.472;2023-02-01T00:11:22;15.40;;;8.70;;
34035;SDS011;63481;52.588;22.472;2023-02-01T00:12:16;17.00;;;9.10;;
34035;SDS011;63481;52.588;22.472;2023-02-01T00:13:09;14.50;;;8.60;;
34035;SDS011;63481;52.588;22.472;2023-02-01T00:14:05;14.30;;;8.30;;
34035;SDS011;63481;52.588;22.472;2023-02-01T00:15:04;13.90;;;8.70;;
34035;SDS011;63481;52.588;22.472;2023-02-01T00:16:04;15.90;;;8.80;;
34035;SDS011;63481;52.588;22.472;2023-02-01T00:16:58;13.90;;;8.40;;
34035;SDS011;63481;52.588;22.472;2023-02-01T00:17:55;15.50;;;8.90;;
34035;SDS011;63481;52.588;22.472;2023-02-01T00:18:49;15.20;;;8.70;;
34035;SDS011;63481;52.588;22.472;2023-02-01T00:19:44;13.80;;;8.80;;
34035;SDS011;63481;52.588;22.472;2023-02-01T00:20:37;14.70;;;8.60;;
34035;SDS011;63481;52.588;22.472;2023-02-01T00:21:30;15.30;;;8.80;;
34035;SDS011;63481;52.588;22.472;2023-02-01T00:22:24;14.20;;;8.70;;
34035;SDS011;63481;52.588;22.472;2023-02-01T00:23:17;14.80;;;9.00;;
34035;SDS011;63481;52.588;22.472;2023-02-01T00:24:11;19.40;;;9.80;;
34035;SDS011;63481;52.588;22.472;2023-02-01T00:25:05;16.30;;;9.60;;
34035;SDS011;63481;52.588;22.472;2023-02-01T00:26:00;17.90;;;10.20;;
34035;SDS011;63481;52.588;22.472;2023-02-01T00:26:54;16.00;;;9.80;;
34035;SDS011;63481;52.588;22.472;2023-02-01T00:27:50;17.20;;;9.50;;
34035;SDS011;63481;52.588;22.472;2023-02-01T00:28:43;15.10;;;9.40;;
34035;SDS011;63481;52.588;22.472;2023-02-01T00:29:36;15.80;;;9.20;;
34035;SDS011;63481;52.588;22.472;2023-02-01T00:30:30;15.50;;;8.70;;
34035;SDS011;63481;52.588;22.472;2023-02-01T00:31:23;15.90;;;9.70;;
34035;SDS011;63481;52.588;22.472;2023-02-01T00:32:17;15.00;;;8.80;;
34035;SDS011;63481;52.588;22.472;2023-02-01T00:33:10;16.30;;;9.70;;
34035;SDS011;63481;52.588;22.472;2023-02-01T00:34:03;13.70;;;8.40;;
34035;SDS011;63481;52.588;22.472;2023-02-01T00:34:57;15.30;;;10.00;;
34035;SDS011;63481;52.588;22.472;2023-02-01T00:35:50;15.30;;;9.70;;
34035;SDS011;63481;52.588;22.472;2023-02-01T00:36:43;15.30;;;9.70;;
34035;SDS011;63481;52.588;22.472;2023-02-01T00:37:39;14.80;;;9.20;;
34035;SDS011;63481;52.588;22.472;2023-02-01T00:38:33;15.00;;;10.10;;
34035;SDS011;63481;52.588;22.472;2023-02-01T00:39:28;15.30;;;9.70;;
34035;SDS011;63481;52.588;22.472;2023-02-01T00:40:21;16.50;;;10.30;;
34035;SDS011;63481;52.588;22.472;2023-02-01T00:41:15;15.90;;;10.20;;
34035;SDS011;63481;52.588;22.472;2023-02-01T00:42:10;21.20;;;11.70;;
34035;SDS011;63481;52.588;22.472;2023-02-01T00:43:03;15.20;;;10.20;;
34035;SDS011;63481;52.588;22.472;2023-02-01T00:43:57;17.30;;;10.60;;
34035;SDS011;63481;52.588;22.472;2023-02-01T00:44:50;15.80;;;10.20;;
34035;SDS011;63481;52.588;22.472;2023-02-01T00:45:44;16.40;;;11.00;;
34035;SDS011;63481;52.588;22.472;2023-02-01T00:46:39;17.90;;;10.20;;
34035;SDS011;63481;52.588;22.472;2023-02-01T00:47:32;18.00;;;11.30;;
34035;SDS011;63481;52.588;22.472;2023-02-01T00:48:25;14.90;;;10.00;;
34035;SDS011;63481;52.588;22.472;2023-02-01T00:49:19;15.00;;;10.20;;
34035;SDS011;63481;52.588;22.472;2023-02-01T00:50:12;15.20;;;10.20;;
34035;SDS011;63481;52.588;22.472;2023-02-01T00:51:06;16.80;;;10.50;;
34035;SDS011;63481;52.588;22.472;2023-02-01T00:52:00;17.00;;;11.30;;
34035;SDS011;63481;52.588;22.472;2023-02-01T00:52:53;15.90;;;10.30;;
34035;SDS011;63481;52.588;22.472;2023-02-01T00:53:46;18.00;;;10.90;;
34035;SDS011;63481;52.588;22.472;2023-02-01T00:54:40;17.80;;;10.60;;
34035;SDS011;63481;52.588;22.472;2023-02-01T00:55:33;18.80;;;11.80;;
34035;SDS011;63481;52.588;22.472;2023-02-01T00:56:27;16.30;;;10.10;;
34035;SDS011;63481;52.588;22.472;2023-02-01T00:57:20;17.20;;;11.40;;
34035;SDS011;63481;52.588;22.472;2023-02-01T00:58:13;16.70;;;10.90;;
34035;SDS011;63481;52.588;22.472;2023-02-01T00:59:10;16.90;;;11.40;;
34035;SDS011;63481;52.588;22.472;2023-02-01T01:00:04;17.20;;;10.80;;
34035;SDS011;63481;52.588;22.472;2023-02-01T01:01:54;17.60;;;10.90;;
34035;SDS011;63481;52.588;22.472;2023-02-01T01:02:47;16.40;;;10.40;;
34035;SDS011;63481;52.588;22.472;2023-02-01T01:03:41;16.20;;;10.60;;
34035;SDS011;63481;52.588;22.472;2023-02-01T01:04:36;17.10;;;10.90;;
34035;SDS011;63481;52.588;22.472;2023-02-01T01:05:30;16.30;;;9.70;;
34035;SDS011;63481;52.588;22.472;2023-02-01T01:06:27;15.60;;;10.40;;
34035;SDS011;63481;52.588;22.472;2023-02-01T01:07:22;16.80;;;10.40;;
34035;SDS011;63481;52.588;22.472;2023-02-01T01:08:15;17.10;;;10.60;;
34035;SDS011;63481;52.588;22.472;2023-02-01T01:09:09;16.70;;;10.00;;
34035;SDS011;63481;52.588;22.472;2023-02-01T01:10:02;14.20;;;9.10;;
34035;SDS011;63481;52.588;22.472;2023-02-01T01:10:56;15.30;;;10.40;;
34035;SDS011;63481;52.588;22.472;2023-02-01T01:11:49;16.20;;;10.60;;
34035;SDS011;63481;52.588;22.472;2023-02-01T01:12:44;15.60;;;10.60;;
34035;SDS011;63481;52.588;22.472;2023-02-01T01:13:37;17.20;;;10.70;;
34035;SDS011;63481;52.588;22.472;2023-02-01T01:14:31;16.10;;;10.40;;
34035;SDS011;63481;52.588;22.472;2023-02-01T01:15:25;15.00;;;10.00;;
34035;SDS011;63481;52.588;22.472;2023-02-01T01:16:18;15.70;;;10.90;;
34035;SDS011;63481;52.588;22.472;2023-02-01T01:17:12;17.00;;;11.00;;
34035;SDS011;63481;52.588;22.472;2023-02-01T01:18:05;16.00;;;10.60;;
34035;SDS011;63481;52.588;22.472;2023-02-01T01:18:59;15.10;;;9.60;;
34035;SDS011;63481;52.588;22.472;2023-02-01T01:19:53;15.40;;;10.40;;
34035;SDS011;63481;52.588;22.472;2023-02-01T01:20:47;18.10;;;10.30;;
34035;SDS011;63481;52.588;22.472;2023-02-01T01:21:39;17.30;;;10.70;;
34035;SDS011;63481;52.588;22.472;2023-02-01T01:22:32;17.80;;;11.40;;
34035;SDS011;63481;52.588;22.472;2023-02-01T01:23:24;16.60;;;10.50;;
34035;SDS011;63481;52.588;22.472;2023-02-01T01:24:19;16.50;;;10.70;;
34035;SDS011;63481;52.588;22.472;2023-02-01T01:25:12;16.70;;;11.40;;
34035;SDS011;63481;52.588;22.472;2023-02-01T01:26:09;16.30;;;10.80;;
34035;SDS011;63481;52.588;22.472;2023-02-01T01:27:06;15.80;;;10.60;;
34035;SDS011;63481;52.588;22.472;2023-02-01T01:27:59;18.50;;;12.30;;
34035;SDS011;63481;52.588;22.472;2023-02-01T01:28:52;17.60;;;11.70;;
34035;SDS011;63481;52.588;22.472;2023-02-01T01:29:47;16.30;;;10.20;;
34035;SDS011;63481;52.588;22.472;2023-02-01T01:30:40;18.30;;;12.40;;
34035;SDS011;63481;52.588;22.472;2023-02-01T01:31:32;15.30;;;10.60;;
34035;SDS011;63481;52.588;22.472;2023-02-01T01:32:25;17.20;;;12.10;;
34035;SDS011;63481;52.588;22.472;2023-02-01T01:33:18;16.90;;;11.10;;
34035;SDS011;63481;52.588;22.472;2023-02-01T01:34:11;18.10;;;11.90;;
34035;SDS011;63481;52.588;22.472;2023-02-01T01:35:03;17.20;;;11.50;;
34035;SDS011;63481;52.588;22.472;2023-02-01T01:35:56;18.90;;;12.50;;
34035;SDS011;63481;52.588;22.472;2023-02-01T01:36:49;18.00;;;11.80;;
34035;SDS011;63481;52.588;22.472;2023-02-01T01:37:41;17.30;;;11.10;;
34035;SDS011;63481;52.588;22.472;2023-02-01T01:38:34;19.30;;;12.50;;
34035;SDS011;63481;52.588;22.472;2023-02-01T01:39:27;18.10;;;12.00;;
34035;SDS011;63481;52.588;22.472;2023-02-01T01:40:19;18.00;;;12.50;;
34035;SDS011;63481;52.588;22.472;2023-02-01T01:41:16;18.00;;;11.90;;
34035;SDS011;63481;52.588;22.472;2023-02-01T01:42:11;17.60;;;11.20;;
34035;SDS011;63481;52.588;22.472;2023-02-01T01:43:12;19.00;;;11.20;;
34035;SDS011;63481;52.588;22.472;2023-02-01T01:44:53;17.90;;;12.60;;
34035;SDS011;63481;52.588;22.472;2023-02-01T01:45:37;20.30;;;11.40;;
34035;SDS011;63481;52.588;22.472;2023-02-01T01:46:31;17.20;;;11.90;;
34035;SDS011;63481;52.588;22.472;2023-02-01T01:47:29;16.80;;;11.00;;
34035;SDS011;63481;52.588;22.472;2023-02-01T01:48:30;17.30;;;11.10;;
34035;SDS011;63481;52.588;22.472;2023-02-01T01:49:23;17.10;;;10.80;;
34035;SDS011;63481;52.588;22.472;2023-02-01T01:50:19;16.00;;;10.70;;
34035;SDS011;63481;52.588;22.472;2023-02-01T01:51:16;15.80;;;10.00;;
34035;SDS011;63481;52.588;22.472;2023-02-01T01:52:12;14.80;;;10.00;;
34035;SDS011;63481;52.588;22.472;2023-02-01T01:53:05;16.50;;;10.20;;
34035;SDS011;63481;52.588;22.472;2023-02-01T01:55:00;16.30;;;10.30;;
34035;SDS011;63481;52.588;22.472;2023-02-01T01:55:53;16.10;;;10.30;;
34035;SDS011;63481;52.588;22.472;2023-02-01T01:56:49;15.40;;;9.40;;
34035;SDS011;63481;52.588;22.472;2023-02-01T01:57:46;15.50;;;10.50;;
34035;SDS011;63481;52.588;22.472;2023-02-01T01:58:44;17.50;;;11.10;;
34035;SDS011;63481;52.588;22.472;2023-02-01T01:59:37;17.20;;;11.10;;
34035;SDS011;63481;52.588;22.472;2023-02-01T02:00:33;16.80;;;10.50;;
34035;SDS011;63481;52.588;22.472;2023-02-01T02:01:27;14.70;;;9.80;;
34035;SDS011;63481;52.588;22.472;2023-02-01T02:02:20;16.30;;;10.50;;
34035;SDS011;63481;52.588;22.472;2023-02-01T02:04:08;16.50;;;10.10;;
34035;SDS011;63481;52.588;22.472;2023-02-01T02:05:00;15.60;;;9.90;;
34035;SDS011;63481;52.588;22.472;2023-02-01T02:05:53;14.80;;;9.60;;
34035;SDS011;63481;52.588;22.472;2023-02-01T02:08:03;15.40;;;10.30;;
34035;SDS011;63481;52.588;22.472;2023-02-01T02:08:56;16.90;;;10.20;;
34035;SDS011;63481;52.588;22.472;2023-02-01T02:09:49;16.20;;;11.50;;
34035;SDS011;63481;52.588;22.472;2023-02-01T02:10:41;15.60;;;10.40;;
34035;SDS011;63481;52.588;22.472;2023-02-01T02:11:53;17.50;;;10.30;;
34035;SDS011;63481;52.588;22.472;2023-02-01T02:12:46;17.80;;;10.90;;
34035;SDS011;63481;52.588;22.472;2023-02-01T02:13:41;16.70;;;9.70;;
34035;SDS011;63481;52.588;22.472;2023-02-01T02:14:37;16.30;;;10.30;;
34035;SDS011;63481;52.588;22.472;2023-02-01T02:15:31;19.00;;;10.70;;
34035;SDS011;63481;52.588;22.472;2023-02-01T02:17:55;16.60;;;10.10;;
34035;SDS011;63481;52.588;22.472;2023-02-01T02:19:05;15.90;;;10.00;;
34035;SDS011;63481;52.588;22.472;2023-02-01T02:21:17;16.40;;;9.60;;
34035;SDS011;63481;52.588;22.472;2023-02-01T02:23:29;14.80;;;9.60;;
34035;SDS011;63481;52.588;22.472;2023-02-01T02:30:00;37.80;;;12.60;;
34035;SDS011;63481;52.588;22.472;2023-02-01T02:32:21;14.70;;;7.60;;
34035;SDS011;63481;52.588;22.472;2023-02-01T02:34:39;14.70;;;7.10;;
34035;SDS011;63481;52.588;22.472;2023-02-01T02:37:56;12.10;;;6.60;;
34035;SDS011;63481;52.588;22.472;2023-02-01T02:41:13;13.90;;;6.60;;
34035;SDS011;63481;52.588;22.472;2023-02-01T02:43:52;14.90;;;6.50;;
34035;SDS011;63481;52.588;22.472;2023-02-01T02:45:16;11.80;;;5.40;;
34035;SDS011;63481;52.588;22.472;2023-02-01T02:46:37;16.50;;;6.20;;
34035;SDS011;63481;52.588;22.472;2023-02-01T02:47:56;11.90;;;5.60;;
34035;SDS011;63481;52.588;22.472;2023-02-01T02:49:06;10.30;;;4.60;;
34035;SDS011;63481;52.588;22.472;2023-02-01T02:51:45;18.30;;;4.80;;
34035;SDS011;63481;52.588;22.472;2023-02-01T02:53:15;9.40;;;4.10;;
34035;SDS011;63481;52.588;22.472;2023-02-01T02:54:33;12.30;;;4.10;;
34035;SDS011;63481;52.588;22.472;2023-02-01T02:55:39;11.50;;;3.90;;
34035;SDS011;63481;52.588;22.472;2023-02-01T02:56:34;15.30;;;3.40;;
34035;SDS011;63481;52.588;22.472;2023-02-01T02:57:46;8.90;;;3.50;;
34035;SDS011;63481;52.588;22.472;2023-02-01T02:58:57;8.90;;;3.10;;
34035;SDS011;63481;52.588;22.472;2023-02-01T03:00:10;9.30;;;3.20;;
34035;SDS011;63481;52.588;22.472;2023-02-01T03:01:23;12.40;;;2.50;;
34035;SDS011;63481;52.588;22.472;2023-02-01T03:02:34;9.40;;;3.00;;
34035;SDS011;63481;52.588;22.472;2023-02-01T03:03:46;10.60;;;2.40;;
34035;SDS011;63481;52.588;22.472;2023-02-01T03:04:58;10.80;;;2.50;;
34035;SDS011;63481;52.588;22.472;2023-02-01T03:05:51;12.70;;;2.60;;
34035;SDS011;63481;52.588;22.472;2023-02-01T03:06:45;8.30;;;2.50;;
34035;SDS011;63481;52.588;22.472;2023-02-01T03:08:37;7.40;;;2.40;;
34035;SDS011;63481;52.588;22.472;2023-02-01T03:09:34;6.60;;;2.30;;
34035;SDS011;63481;52.588;22.472;2023-02-01T03:11:28;9.30;;;2.40;;
34035;SDS011;63481;52.588;22.472;2023-02-01T03:12:44;9.60;;;2.80;;
34035;SDS011;63481;52.588;22.472;2023-02-01T03:13:56;5.70;;;1.80;;
34035;SDS011;63481;52.588;22.472;2023-02-01T03:14:54;7.90;;;2.30;;
34035;SDS011;63481;52.588;22.472;2023-02-01T03:16:36;7.40;;;2.10;;
34035;SDS011;63481;52.588;22.472;2023-02-01T03:17:17;7.00;;;2.10;;
34035;SDS011;63481;52.588;22.472;2023-02-01T03:18:19;9.60;;;2.70;;
34035;SDS011;63481;52.588;22.472;2023-02-01T03:19:29;10.30;;;2.40;;
34035;SDS011;63481;52.588;22.472;2023-02-01T03:20:26;9.50;;;1.80;;
34035;SDS011;63481;52.588;22.472;2023-02-01T03:21:24;8.40;;;2.30;;
34035;SDS011;63481;52.588;22.472;2023-02-01T03:22:25;11.60;;;2.30;;
34035;SDS011;63481;52.588;22.472;2023-02-01T03:23:24;9.70;;;2.20;;
34035;SDS011;63481;52.588;22.472;2023-02-01T03:24:23;12.20;;;2.70;;
34035;SDS011;63481;52.588;22.472;2023-02-01T03:25:27;6.40;;;2.20;;
34035;SDS011;63481;52.588;22.472;2023-02-01T03:26:23;5.50;;;1.90;;
34035;SDS011;63481;52.588;22.472;2023-02-01T03:27:24;7.30;;;2.20;;
34035;SDS011;63481;52.588;22.472;2023-02-01T03:28:22;10.90;;;2.10;;
34035;SDS011;63481;52.588;22.472;2023-02-01T03:29:18;7.10;;;1.90;;
34035;SDS011;63481;52.588;22.472;2023-02-01T03:30:17;9.60;;;2.00;;
34035;SDS011;63481;52.588;22.472;2023-02-01T03:31:15;6.80;;;2.70;;
34035;SDS011;63481;52.588;22.472;2023-02-01T03:32:08;5.20;;;1.80;;
34035;SDS011;63481;52.588;22.472;2023-02-01T03:33:03;7.30;;;2.10;;
34035;SDS011;63481;52.588;22.472;2023-02-01T03:34:05;9.10;;;1.90;;
34035;SDS011;63481;52.588;22.472;2023-02-01T03:34:58;6.70;;;1.70;;
34035;SDS011;63481;52.588;22.472;2023-02-01T03:37:09;10.30;;;2.10;;
34035;SDS011;63481;52.588;22.472;2023-02-01T03:38:26;10.30;;;2.50;;
34035;SDS011;63481;52.588;22.472;2023-02-01T03:40:32;11.70;;;2.20;;
34035;SDS011;63481;52.588;22.472;2023-02-01T03:42:43;7.10;;;2.40;;
34035;SDS011;63481;52.588;22.472;2023-02-01T03:43:54;5.90;;;2.20;;
34035;SDS011;63481;52.588;22.472;2023-02-01T03:44:51;10.60;;;2.20;;
34035;SDS011;63481;52.588;22.472;2023-02-01T03:45:56;6.10;;;2.00;;
34035;SDS011;63481;52.588;22.472;2023-02-01T03:47:48;6.10;;;1.90;;
34035;SDS011;63481;52.588;22.472;2023-02-01T03:48:44;9.90;;;2.30;;
34035;SDS011;63481;52.588;22.472;2023-02-01T03:49:40;10.50;;;2.30;;
34035;SDS011;63481;52.588;22.472;2023-02-01T03:50:36;8.90;;;2.00;;
34035;SDS011;63481;52.588;22.472;2023-02-01T03:51:32;9.30;;;2.00;;
34035;SDS011;63481;52.588;22.472;2023-02-01T03:52:30;8.90;;;2.50;;
34035;SDS011;63481;52.588;22.472;2023-02-01T03:53:29;8.60;;;2.20;;
34035;SDS011;63481;52.588;22.472;2023-02-01T03:54:23;8.80;;;2.70;;
34035;SDS011;63481;52.588;22.472;2023-02-01T03:55:17;7.80;;;2.30;;
34035;SDS011;63481;52.588;22.472;2023-02-01T03:56:13;11.10;;;2.50;;
34035;SDS011;63481;52.588;22.472;2023-02-01T03:57:08;10.40;;;2.80;;
34035;SDS011;63481;52.588;22.472;2023-02-01T03:58:06;5.60;;;2.10;;
34035;SDS011;63481;52.588;22.472;2023-02-01T03:59:02;8.30;;;2.50;;
34035;SDS011;63481;52.588;22.472;2023-02-01T04:00:04;6.30;;;2.30;;
34035;SDS011;63481;52.588;22.472;2023-02-01T04:01:06;14.00;;;3.00;;
34035;SDS011;63481;52.588;22.472;2023-02-01T04:01:59;7.30;;;2.50;;
34035;SDS011;63481;52.588;22.472;2023-02-01T04:02:52;14.20;;;3.10;;
34035;SDS011;63481;52.588;22.472;2023-02-01T04:03:45;14.90;;;3.90;;
34035;SDS011;63481;52.588;22.472;2023-02-01T04:04:38;10.80;;;3.30;;
34035;SDS011;63481;52.588;22.472;2023-02-01T04:05:31;6.80;;;2.50;;
34035;SDS011;63481;52.588;22.472;2023-02-01T04:06:27;10.10;;;2.40;;
34035;SDS011;63481;52.588;22.472;2023-02-01T04:07:22;10.90;;;3.40;;
34035;SDS011;63481;52.588;22.472;2023-02-01T04:08:15;8.90;;;2.50;;
34035;SDS011;63481;52.588;22.472;2023-02-01T04:09:07;8.80;;;2.90;;
34035;SDS011;63481;52.588;22.472;2023-02-01T04:10:00;9.50;;;4.30;;
34035;SDS011;63481;52.588;22.472;2023-02-01T04:10:53;13.50;;;3.70;;
34035;SDS011;63481;52.588;22.472;2023-02-01T04:11:45;10.90;;;3.60;;
34035;SDS011;63481;52.588;22.472;2023-02-01T04:12:38;9.00;;;2.80;;
34035;SDS011;63481;52.588;22.472;2023-02-01T04:13:32;9.90;;;3.10;;
34035;SDS011;63481;52.588;22.472;2023-02-01T04:14:24;9.40;;;2.50;;
34035;SDS011;63481;52.588;22.472;2023-02-01T04:15:17;15.30;;;3.10;;
34035;SDS011;63481;52.588;22.472;2023-02-01T04:16:09;13.10;;;2.90;;
34035;SDS011;63481;52.588;22.472;2023-02-01T04:17:02;14.50;;;3.30;;
34035;SDS011;63481;52.588;22.472;2023-02-01T04:17:55;10.50;;;3.10;;
34035;SDS011;63481;52.588;22.472;2023-02-01T04:18:48;11.10;;;2.80;;
34035;SDS011;63481;52.588;22.472;2023-02-01T04:19:40;9.40;;;3.20;;
34035;SDS011;63481;52.588;22.472;2023-02-01T04:20:33;6.90;;;2.60;;
34035;SDS011;63481;52.588;22.472;2023-02-01T04:21:25;8.90;;;3.00;;
34035;SDS011;63481;52.588;22.472;2023-02-01T04:22:18;10.40;;;3.00;;
34035;SDS011;63481;52.588;22.472;2023-02-01T04:23:11;12.30;;;3.30;;
34035;SDS011;63481;52.588;22.472;2023-02-01T04:24:04;10.40;;;3.10;;
34035;SDS011;63481;52.588;22.472;2023-02-01T04:24:57;9.00;;;3.30;;
34035;SDS011;63481;52.588;22.472;2023-02-01T04:25:49;11.00;;;3.10;;
34035;SDS011;63481;52.588;22.472;2023-02-01T04:26:45;8.90;;;3.10;;
34035;SDS011;63481;52.588;22.472;2023-02-01T04:27:37;11.70;;;3.40;;
34035;SDS011;63481;52.588;22.472;2023-02-01T04:28:30;14.40;;;4.20;;
34035;SDS011;63481;52.588;22.472;2023-02-01T04:29:23;12.60;;;3.20;;
34035;SDS011;63481;52.588;22.472;2023-02-01T04:30:15;9.80;;;3.20;;
34035;SDS011;63481;52.588;22.472;2023-02-01T04:31:08;11.50;;;3.80;;
34035;SDS011;63481;52.588;22.472;2023-02-01T04:32:00;9.60;;;3.40;;
34035;SDS011;63481;52.588;22.472;2023-02-01T04:32:53;10.40;;;3.10;;
34035;SDS011;63481;52.588;22.472;2023-02-01T04:33:45;11.10;;;3.30;;
34035;SDS011;63481;52.588;22.472;2023-02-01T04:34:38;10.80;;;3.20;;
34035;SDS011;63481;52.588;22.472;2023-02-01T04:35:30;10.80;;;3.20;;
34035;SDS011;63481;52.588;22.472;2023-02-01T04:36:23;13.10;;;3.90;;
34035;SDS011;63481;52.588;22.472;2023-02-01T04:37:16;18.00;;;3.40;;
34035;SDS011;63481;52.588;22.472;2023-02-01T04:38:08;12.00;;;3.40;;
34035;SDS011;63481;52.588;22.472;2023-02-01T04:39:01;8.40;;;3.00;;
34035;SDS011;63481;52.588;22.472;2023-02-01T04:39:54;10.20;;;3.30;;
34035;SDS011;63481;52.588;22.472;2023-02-01T04:40:47;10.50;;;3.20;;
34035;SDS011;63481;52.588;22.472;2023-02-01T04:41:40;13.90;;;3.70;;
34035;SDS011;63481;52.588;22.472;2023-02-01T04:42:33;14.40;;;3.60;;
34035;SDS011;63481;52.588;22.472;2023-02-01T04:43:25;13.20;;;3.60;;
34035;SDS011;63481;52.588;22.472;2023-02-01T04:44:18;14.90;;;4.60;;
34035;SDS011;63481;52.588;22.472;2023-02-01T04:45:11;14.00;;;4.00;;
34035;SDS011;63481;52.588;22.472;2023-02-01T04:46:03;12.90;;;3.80;;
34035;SDS011;63481;52.588;22.472;2023-02-01T04:46:56;14.20;;;3.80;;
34035;SDS011;63481;52.588;22.472;2023-02-01T04:47:49;16.70;;;4.10;;
34035;SDS011;63481;52.588;22.472;2023-02-01T04:48:41;12.70;;;4.00;;
34035;SDS011;63481;52.588;22.472;2023-02-01T04:49:35;11.90;;;4.30;;
34035;SDS011;63481;52.588;22.472;2023-02-01T04:50:27;13.60;;;4.10;;
34035;SDS011;63481;52.588;22.472;2023-02-01T04:51:20;14.30;;;4.20;;
34035;SDS011;63481;52.588;22.472;2023-02-01T04:52:12;11.10;;;3.50;;
34035;SDS011;63481;52.588;22.472;2023-02-01T04:53:05;19.30;;;4.90;;
34035;SDS011;63481;52.588;22.472;2023-02-01T04:53:57;14.90;;;4.60;;
34035;SDS011;63481;52.588;22.472;2023-02-01T04:54:50;10.40;;;4.00;;
34035;SDS011;63481;52.588;22.472;2023-02-01T04:55:43;15.10;;;4.30;;
34035;SDS011;63481;52.588;22.472;2023-02-01T04:56:35;15.00;;;4.10;;
34035;SDS011;63481;52.588;22.472;2023-02-01T04:57:28;12.80;;;4.40;;
34035;SDS011;63481;52.588;22.472;2023-02-01T04:58:21;13.90;;;4.10;;
34035;SDS011;63481;52.588;22.472;2023-02-01T04:59:13;10.20;;;3.60;;
34035;SDS011;63481;52.588;22.472;2023-02-01T05:00:07;19.00;;;5.50;;
34035;SDS011;63481;52.588;22.472;2023-02-01T05:01:04;14.60;;;4.40;;
34035;SDS011;63481;52.588;22.472;2023-02-01T05:01:58;18.60;;;5.00;;
34035;SDS011;63481;52.588;22.472;2023-02-01T05:02:50;16.20;;;4.20;;
34035;SDS011;63481;52.588;22.472;2023-02-01T05:03:43;14.50;;;4.60;;
34035;SDS011;63481;52.588;22.472;2023-02-01T05:04:35;12.70;;;3.90;;
34035;SDS011;63481;52.588;22.472;2023-02-01T05:05:28;15.40;;;4.30;;
34035;SDS011;63481;52.588;22.472;2023-02-01T05:06:21;17.20;;;4.30;;
34035;SDS011;63481;52.588;22.472;2023-02-01T05:07:14;12.80;;;4.30;;
34035;SDS011;63481;52.588;22.472;2023-02-01T05:08:07;16.10;;;4.80;;
34035;SDS011;63481;52.588;22.472;2023-02-01T05:09:00;15.00;;;4.60;;
34035;SDS011;63481;52.588;22.472;2023-02-01T05:09:54;14.20;;;4.20;;
34035;SDS011;63481;52.588;22.472;2023-02-01T05:10:47;9.20;;;3.60;;
34035;SDS011;63481;52.588;22.472;2023-02-01T05:11:40;15.60;;;4.40;;
34035;SDS011;63481;52.588;22.472;2023-02-01T05:12:52;11.20;;;4.30;;
34035;SDS011;63481;52.588;22.472;2023-02-01T05:14:04;13.00;;;4.20;;
34035;SDS011;63481;52.588;22.472;2023-02-01T05:14:57;16.90;;;4.30;;
34035;SDS011;63481;52.588;22.472;2023-02-01T05:15:50;17.60;;;4.10;;
34035;SDS011;63481;52.588;22.472;2023-02-01T05:16:44;11.90;;;3.90;;
34035;SDS011;63481;52.588;22.472;2023-02-01T05:17:37;11.20;;;4.20;;
34035;SDS011;63481;52.588;22.472;2023-02-01T05:18:32;12.20;;;4.20;;
34035;SDS011;63481;52.588;22.472;2023-02-01T05:19:25;12.40;;;4.90;;
34035;SDS011;63481;52.588;22.472;2023-02-01T05:20:18;13.20;;;4.40;;
34035;SDS011;63481;52.588;22.472;2023-02-01T05:21:12;14.90;;;4.70;;
34035;SDS011;63481;52.588;22.472;2023-02-01T05:22:05;12.00;;;4.20;;
34035;SDS011;63481;52.588;22.472;2023-02-01T05:22:58;14.40;;;4.40;;
34035;SDS011;63481;52.588;22.472;2023-02-01T05:23:52;14.20;;;4.20;;
34035;SDS011;63481;52.588;22.472;2023-02-01T05:25:05;15.30;;;3.80;;
34035;SDS011;63481;52.588;22.472;2023-02-01T05:25:59;12.20;;;4.00;;
34035;SDS011;63481;52.588;22.472;2023-02-01T05:26:53;12.90;;;3.80;;
34035;SDS011;63481;52.588;22.472;2023-02-01T05:27:46;12.20;;;3.50;;
34035;SDS011;63481;52.588;22.472;2023-02-01T05:28:39;10.40;;;3.70;;
34035;SDS011;63481;52.588;22.472;2023-02-01T05:29:32;13.20;;;4.20;;
34035;SDS011;63481;52.588;22.472;2023-02-01T05:30:25;13.60;;;4.00;;
34035;SDS011;63481;52.588;22.472;2023-02-01T05:31:19;12.50;;;3.30;;
34035;SDS011;63481;52.588;22.472;2023-02-01T05:32:12;13.70;;;3.90;;
34035;SDS011;63481;52.588;22.472;2023-02-01T05:33:05;12.80;;;4.30;;
34035;SDS011;63481;52.588;22.472;2023-02-01T05:33:58;11.00;;;3.50;;
34035;SDS011;63481;52.588;22.472;2023-02-01T05:34:51;13.70;;;3.90;;
34035;SDS011;63481;52.588;22.472;2023-02-01T05:35:44;12.40;;;4.10;;
34035;SDS011;63481;52.588;22.472;2023-02-01T05:36:37;14.60;;;4.00;;
34035;SDS011;63481;52.588;22.472;2023-02-01T05:37:30;14.90;;;4.40;;
34035;SDS011;63481;52.588;22.472;2023-02-01T05:38:23;16.60;;;4.50;;
34035;SDS011;63481;52.588;22.472;2023-02-01T05:39:17;13.10;;;3.90;;
34035;SDS011;63481;52.588;22.472;2023-02-01T05:40:10;15.00;;;4.60;;
34035;SDS011;63481;52.588;22.472;2023-02-01T05:41:04;12.80;;;3.60;;
34035;SDS011;63481;52.588;22.472;2023-02-01T05:41:57;12.20;;;3.90;;
34035;SDS011;63481;52.588;22.472;2023-02-01T05:42:50;15.20;;;4.00;;
34035;SDS011;63481;52.588;22.472;2023-02-01T05:43:43;12.30;;;4.00;;
34035;SDS011;63481;52.588;22.472;2023-02-01T05:44:36;11.40;;;3.90;;
34035;SDS011;63481;52.588;22.472;2023-02-01T05:45:29;12.60;;;4.00;;
34035;SDS011;63481;52.588;22.472;2023-02-01T05:46:23;16.20;;;4.10;;
34035;SDS011;63481;52.588;22.472;2023-02-01T05:47:16;13.20;;;4.10;;
34035;SDS011;63481;52.588;22.472;2023-02-01T05:48:09;12.90;;;3.70;;
34035;SDS011;63481;52.588;22.472;2023-02-01T05:49:03;12.00;;;4.00;;
34035;SDS011;63481;52.588;22.472;2023-02-01T05:49:57;14.10;;;4.40;;
34035;SDS011;63481;52.588;22.472;2023-02-01T05:50:50;13.70;;;4.10;;
34035;SDS011;63481;52.588;22.472;2023-02-01T05:51:43;12.80;;;4.30;;
34035;SDS011;63481;52.588;22.472;2023-02-01T05:52:36;13.80;;;4.00;;
34035;SDS011;63481;52.588;22.472;2023-02-01T05:53:29;12.20;;;3.80;;
34035;SDS011;63481;52.588;22.472;2023-02-01T05:54:22;12.70;;;4.10;;
34035;SDS011;63481;52.588;22.472;2023-02-01T05:55:16;12.00;;;3.60;;
34035;SDS011;63481;52.588;22.472;2023-02-01T05:56:09;10.60;;;3.70;;
34035;SDS011;63481;52.588;22.472;2023-02-01T05:57:02;16.10;;;4.00;;